createdAt,value
2018-04-24T00:00:55.607Z,79.60
2018-04-24T00:01:55.854Z,79.99
2018-04-24T00:02:56.088Z,79.80
2018-04-24T00:03:56.332Z,80.23
2018-04-24T00:04:56.569Z,80.80
2018-04-24T00:05:56.809Z,80.84
2018-04-24T00:06:57.049Z,80.52
2018-04-24T00:07:57.286Z,80.90
2018-04-24T00:08:57.525Z,80.99
2018-04-24T00:09:57.763Z,80.90
2018-04-24T00:10:58.007Z,80.90
2018-04-24T00:11:58.245Z,80.61
2018-04-24T00:12:58.487Z,80.99
2018-04-24T00:13:58.729Z,80.90
2018-04-24T00:14:58.967Z,81.28
2018-04-24T00:15:59.207Z,81.09
2018-04-24T00:16:59.448Z,80.90
2018-04-24T00:17:59.687Z,80.99
2018-04-24T00:18:59.925Z,81.28
2018-04-24T00:20:00.164Z,80.71
2018-04-24T00:21:00.403Z,80.99
2018-04-24T00:22:00.643Z,81.76
2018-04-24T00:23:00.881Z,81.28
2018-04-24T00:24:01.120Z,81.56
2018-04-24T00:25:01.368Z,81.28
2018-04-24T00:26:01.682Z,81.47
2018-04-24T00:27:01.840Z,81.37
2018-04-24T00:28:02.078Z,81.37
2018-04-24T00:29:02.320Z,81.56
2018-04-24T00:30:02.559Z,81.47
2018-04-24T00:31:02.797Z,81.28
2018-04-24T00:32:03.036Z,81.66
2018-04-24T00:33:03.277Z,81.85
2018-04-24T00:34:03.517Z,81.66
2018-04-24T00:35:03.756Z,81.37
2018-04-24T00:36:03.995Z,81.56
2018-04-24T00:37:04.235Z,82.70
2018-04-24T00:38:04.475Z,82.61
2018-04-24T00:39:04.715Z,82.70
2018-04-24T00:40:04.955Z,82.51
2018-04-24T00:41:05.194Z,83.37
2018-04-24T00:42:05.440Z,83.56
2018-04-24T00:43:05.674Z,84.09
2018-04-24T00:44:05.913Z,83.75
2018-04-24T00:45:06.149Z,83.65
2018-04-24T00:46:06.389Z,84.09
2018-04-24T00:47:06.626Z,84.23
2018-04-24T00:48:06.867Z,83.28
2018-04-24T00:49:07.104Z,82.42
2018-04-24T00:50:07.343Z,82.80
2018-04-24T00:51:07.581Z,82.99
2018-04-24T00:52:07.819Z,82.70
2018-04-24T00:53:08.059Z,82.51
2018-04-24T00:54:08.298Z,82.61
2018-04-24T00:55:08.537Z,82.90
2018-04-24T00:56:08.776Z,83.37
2018-04-24T00:57:09.017Z,83.18
2018-04-24T00:58:09.254Z,83.28
2018-04-24T00:59:09.494Z,82.80
2018-04-24T01:00:09.734Z,83.28
2018-04-24T01:01:09.971Z,83.37
2018-04-24T01:02:10.213Z,83.65
2018-04-24T01:03:10.453Z,83.47
2018-04-24T01:04:10.694Z,83.75
2018-04-24T01:05:10.932Z,83.65
2018-04-24T01:06:11.171Z,83.94
2018-04-24T01:07:11.410Z,84.13
2018-04-24T01:08:11.648Z,83.75
2018-04-24T01:09:11.891Z,83.65
2018-04-24T01:10:12.127Z,83.94
2018-04-24T01:11:12.366Z,83.85
2018-04-24T01:12:12.606Z,83.28
2018-04-24T01:13:12.843Z,83.85
2018-04-24T01:14:13.081Z,83.18
2018-04-24T01:15:13.319Z,83.18
2018-04-24T01:16:13.559Z,83.47
2018-04-24T01:17:13.796Z,83.94
2018-04-24T01:18:14.036Z,84.42
2018-04-24T01:19:14.271Z,84.33
2018-04-24T01:20:14.512Z,84.99
2018-04-24T01:21:14.752Z,84.61
2018-04-24T01:22:14.994Z,85.61
2018-04-24T01:23:15.231Z,85.47
2018-04-24T01:24:15.471Z,85.66
2018-04-24T01:25:15.709Z,85.66
2018-04-24T01:26:15.946Z,85.47
2018-04-24T01:27:16.185Z,85.28
2018-04-24T01:28:16.425Z,85.71
2018-04-24T01:29:16.663Z,85.61
2018-04-24T01:30:16.901Z,85.94
2018-04-24T01:31:17.141Z,85.75
2018-04-24T01:32:17.380Z,85.37
2018-04-24T01:33:17.620Z,85.28
2018-04-24T01:34:17.859Z,85.66
2018-04-24T01:35:18.097Z,85.75
2018-04-24T01:36:18.337Z,85.47
2018-04-24T01:37:18.575Z,85.37
2018-04-24T01:38:18.816Z,85.28
2018-04-24T01:39:19.051Z,85.56
2018-04-24T01:40:19.291Z,85.75
2018-04-24T01:41:19.528Z,85.28
2018-04-24T01:42:19.769Z,85.28
2018-04-24T01:43:20.008Z,85.85
2018-04-24T01:44:20.245Z,85.56
2018-04-24T01:45:20.486Z,86.32
2018-04-24T01:46:20.721Z,86.22
2018-04-24T01:47:20.962Z,85.99
2018-04-24T01:48:21.200Z,86.42
2018-04-24T01:49:21.438Z,86.85
2018-04-24T01:50:21.676Z,86.66
2018-04-24T01:51:21.913Z,86.57
2018-04-24T01:52:22.155Z,87.04
2018-04-24T01:53:22.394Z,87.13
2018-04-24T01:54:22.634Z,87.56
2018-04-24T01:55:22.874Z,87.23
2018-04-24T01:56:23.111Z,87.80
2018-04-24T01:57:23.350Z,87.71
2018-04-24T01:58:23.589Z,87.99
2018-04-24T01:59:23.827Z,88.09
2018-04-24T02:00:24.067Z,88.09
2018-04-24T02:01:24.307Z,88.18
2018-04-24T02:02:24.546Z,88.09
2018-04-24T02:03:24.784Z,88.37
2018-04-24T02:04:25.021Z,88.37
2018-04-24T02:05:25.261Z,88.94
2018-04-24T02:06:25.500Z,88.85
2018-04-24T02:07:25.740Z,88.94
2018-04-24T02:08:25.977Z,89.04
2018-04-24T02:09:26.213Z,88.66
2018-04-24T02:10:26.455Z,89.23
2018-04-24T02:11:26.693Z,89.14
2018-04-24T02:12:26.935Z,88.85
2018-04-24T02:13:27.170Z,88.94
2018-04-24T02:14:27.410Z,88.94
2018-04-24T02:15:27.651Z,89.14
2018-04-24T02:16:27.888Z,89.61
2018-04-24T02:17:28.127Z,89.99
2018-04-24T02:18:28.364Z,89.80
2018-04-24T02:19:28.605Z,89.80
2018-04-24T02:20:28.844Z,89.80
2018-04-24T02:21:29.088Z,89.32
2018-04-24T02:22:29.324Z,89.61
2018-04-24T02:23:29.561Z,89.51
2018-04-24T02:24:29.853Z,89.70
2018-04-24T02:25:30.041Z,89.14
2018-04-24T02:26:30.279Z,89.14
2018-04-24T02:27:30.515Z,89.51
2018-04-24T02:28:30.756Z,89.14
2018-04-24T02:29:30.995Z,89.23
2018-04-24T02:30:31.234Z,90.18
2018-04-24T02:31:31.471Z,90.18
2018-04-24T02:32:31.710Z,89.99
2018-04-24T02:33:31.951Z,90.28
2018-04-24T02:34:32.185Z,90.28
2018-04-24T02:35:32.425Z,90.66
2018-04-24T02:36:32.665Z,90.47
2018-04-24T02:37:32.900Z,90.99
2018-04-24T02:38:33.140Z,90.89
2018-04-24T02:39:33.379Z,91.47
2018-04-24T02:40:33.619Z,91.18
2018-04-24T02:41:33.856Z,91.94
2018-04-24T02:42:34.095Z,92.32
2018-04-24T02:43:34.333Z,92.22
2018-04-24T02:44:34.570Z,92.13
2018-04-24T02:45:34.810Z,92.32
2018-04-24T02:46:35.050Z,92.22
2018-04-24T02:47:35.294Z,92.32
2018-04-24T02:48:35.527Z,92.61
2018-04-24T02:49:35.768Z,92.70
2018-04-24T02:50:36.007Z,92.61
2018-04-24T02:51:36.246Z,92.80
2018-04-24T02:52:36.486Z,92.70
2018-04-24T02:53:36.730Z,92.99
2018-04-24T02:54:36.962Z,92.89
2018-04-24T02:55:37.201Z,92.70
2018-04-24T02:56:37.440Z,93.18
2018-04-24T02:57:37.678Z,93.08
2018-04-24T02:58:37.916Z,92.99
2018-04-24T02:59:38.155Z,92.89
2018-04-24T03:00:38.396Z,93.08
2018-04-24T03:01:38.637Z,93.08
2018-04-24T03:02:38.873Z,93.08
2018-04-24T03:03:39.115Z,92.99
2018-04-24T03:04:39.356Z,92.70
2018-04-24T03:05:39.597Z,92.99
2018-04-24T03:06:39.833Z,93.08
2018-04-24T03:07:40.071Z,93.27
2018-04-24T03:08:40.306Z,92.99
2018-04-24T03:09:40.541Z,93.18
2018-04-24T03:10:40.784Z,93.08
2018-04-24T03:11:41.020Z,93.18
2018-04-24T03:12:41.259Z,93.08
2018-04-24T03:13:41.500Z,93.08
2018-04-24T03:14:41.738Z,92.89
2018-04-24T03:15:41.976Z,93.18
2018-04-24T03:16:42.216Z,93.55
2018-04-24T03:17:42.457Z,93.84
2018-04-24T03:18:42.697Z,93.37
2018-04-24T03:19:42.931Z,93.55
2018-04-24T03:20:43.172Z,94.32
2018-04-24T03:21:43.409Z,93.94
2018-04-24T03:22:43.646Z,93.75
2018-04-24T03:23:43.884Z,93.46
2018-04-24T03:24:44.124Z,94.32
2018-04-24T03:25:44.363Z,94.42
2018-04-24T03:26:44.604Z,94.51
2018-04-24T03:27:44.840Z,94.03
2018-04-24T03:28:45.091Z,94.46
2018-04-24T03:29:45.324Z,94.60
2018-04-24T03:30:45.563Z,94.27
2018-04-24T03:31:45.802Z,95.12
2018-04-24T03:32:46.086Z,95.32
2018-04-24T03:33:46.279Z,96.08
2018-04-24T03:34:46.519Z,96.08
2018-04-24T03:35:46.756Z,95.65
2018-04-24T03:36:47.000Z,95.36
2018-04-24T03:37:47.233Z,95.56
2018-04-24T03:38:47.470Z,94.89
2018-04-24T03:39:47.711Z,94.51
2018-04-24T03:40:47.949Z,94.79
2018-04-24T03:41:48.188Z,94.70
2018-04-24T03:42:48.429Z,94.70
2018-04-24T03:43:48.666Z,94.51
2018-04-24T03:44:48.903Z,94.79
2018-04-24T03:45:49.145Z,94.70
2018-04-24T03:46:49.381Z,94.13
2018-04-24T03:47:49.618Z,94.13
2018-04-24T03:48:49.858Z,94.22
2018-04-24T03:49:50.096Z,94.03
2018-04-24T03:50:50.335Z,94.22
2018-04-24T03:51:50.573Z,94.32
2018-04-24T03:52:50.813Z,94.51
2018-04-24T03:53:51.053Z,94.79
2018-04-24T03:54:51.292Z,94.89
2018-04-24T03:55:51.535Z,95.08
2018-04-24T03:56:51.771Z,94.51
2018-04-24T03:57:52.011Z,94.89
2018-04-24T03:58:52.248Z,94.70
2018-04-24T03:59:52.569Z,94.13
2018-04-24T04:00:52.727Z,93.94
2018-04-24T04:01:52.965Z,94.60
2018-04-24T04:02:53.205Z,93.75
2018-04-24T04:03:53.441Z,94.32
2018-04-24T04:04:53.678Z,93.55
2018-04-24T04:05:53.918Z,94.13
2018-04-24T04:06:54.158Z,93.84
2018-04-24T04:07:54.396Z,94.03
2018-04-24T04:08:54.635Z,93.55
2018-04-24T04:09:54.875Z,94.03
2018-04-24T04:10:55.121Z,93.94
2018-04-24T04:11:55.351Z,94.32
2018-04-24T04:12:55.589Z,93.94
2018-04-24T04:13:55.828Z,93.94
2018-04-24T04:14:56.067Z,93.75
2018-04-24T04:15:56.346Z,93.08
2018-04-24T04:16:56.545Z,92.56
2018-04-24T04:17:56.785Z,92.46
2018-04-24T04:18:57.023Z,92.46
2018-04-24T04:19:57.261Z,91.42
2018-04-24T04:20:57.500Z,90.94
2018-04-24T04:21:57.742Z,91.03
2018-04-24T04:22:57.975Z,90.84
2018-04-24T04:23:58.216Z,90.84
2018-04-24T04:24:58.453Z,90.66
2018-04-24T04:25:58.691Z,90.66
2018-04-24T04:26:58.947Z,90.18
2018-04-24T04:27:59.186Z,90.37
2018-04-24T04:28:59.425Z,89.51
2018-04-24T04:29:59.662Z,89.99
2018-04-24T04:30:59.901Z,89.84
2018-04-24T04:32:00.138Z,89.75
2018-04-24T04:33:00.451Z,88.99
2018-04-24T04:34:00.616Z,89.27
2018-04-24T04:35:00.862Z,89.37
2018-04-24T04:36:01.093Z,89.75
2018-04-24T04:37:01.332Z,89.27
2018-04-24T04:38:01.571Z,88.51
2018-04-24T04:39:01.809Z,88.51
2018-04-24T04:40:02.051Z,87.65
2018-04-24T04:41:02.289Z,88.23
2018-04-24T04:42:02.528Z,87.37
2018-04-24T04:43:02.768Z,87.27
2018-04-24T04:44:03.006Z,87.23
2018-04-24T04:45:03.245Z,87.23
2018-04-24T04:46:03.489Z,86.75
2018-04-24T04:47:03.725Z,86.84
2018-04-24T04:48:03.963Z,86.36
2018-04-24T04:49:04.201Z,86.46
2018-04-24T04:50:04.445Z,86.94
2018-04-24T04:51:04.679Z,86.27
2018-04-24T04:52:04.919Z,86.75
2018-04-24T04:53:05.162Z,87.23
2018-04-24T04:54:05.402Z,87.32
2018-04-24T04:55:05.637Z,87.51
2018-04-24T04:56:05.884Z,87.98
2018-04-24T04:57:06.113Z,88.08
2018-04-24T04:58:06.352Z,88.13
2018-04-24T04:59:06.591Z,88.32
2018-04-24T05:00:06.833Z,87.79
2018-04-24T05:01:07.073Z,88.08
2018-04-24T05:02:07.307Z,87.94
2018-04-24T05:03:07.547Z,88.65
2018-04-24T05:04:07.785Z,88.32
2018-04-24T05:05:08.081Z,88.70
2018-04-24T05:06:08.268Z,88.75
2018-04-24T05:07:08.501Z,88.18
2018-04-24T05:08:08.740Z,87.89
2018-04-24T05:09:08.982Z,87.89
2018-04-24T05:10:09.224Z,88.18
2018-04-24T05:11:09.461Z,87.60
2018-04-24T05:12:09.841Z,88.18
2018-04-24T05:13:09.934Z,88.46
2018-04-24T05:14:10.172Z,87.89
2018-04-24T05:15:10.410Z,87.89
2018-04-24T05:16:10.649Z,87.89
2018-04-24T05:17:10.887Z,87.89
2018-04-24T05:18:11.126Z,88.08
2018-04-24T05:19:11.370Z,87.79
2018-04-24T05:20:11.640Z,88.37
2018-04-24T05:21:11.846Z,88.08
2018-04-24T05:22:12.085Z,88.08
2018-04-24T05:23:12.327Z,87.79
2018-04-24T05:24:12.564Z,88.75
2018-04-24T05:25:12.805Z,88.56
2018-04-24T05:26:13.045Z,88.65
2018-04-24T05:27:13.285Z,88.84
2018-04-24T05:28:13.524Z,89.13
2018-04-24T05:29:13.766Z,89.03
2018-04-24T05:30:14.001Z,88.84
2018-04-24T05:31:14.240Z,89.51
2018-04-24T05:32:14.480Z,89.13
2018-04-24T05:33:14.716Z,89.03
2018-04-24T05:34:14.955Z,88.65
2018-04-24T05:35:15.195Z,88.46
2018-04-24T05:36:15.434Z,88.08
2018-04-24T05:37:15.672Z,87.60
2018-04-24T05:38:15.913Z,88.41
2018-04-24T05:39:16.151Z,88.60
2018-04-24T05:40:16.390Z,87.84
2018-04-24T05:41:16.629Z,88.12
2018-04-24T05:42:16.869Z,87.79
2018-04-24T05:43:17.110Z,88.18
2018-04-24T05:44:17.349Z,87.74
2018-04-24T05:45:17.622Z,88.22
2018-04-24T05:46:17.829Z,88.93
2018-04-24T05:47:18.069Z,88.08
2018-04-24T05:48:18.310Z,87.79
2018-04-24T05:49:18.550Z,88.84
2018-04-24T05:50:18.788Z,88.89
2018-04-24T05:51:19.029Z,88.12
2018-04-24T05:52:19.335Z,88.22
2018-04-24T05:53:19.509Z,88.22
2018-04-24T05:54:19.746Z,88.12
2018-04-24T05:55:19.991Z,87.93
2018-04-24T05:56:20.226Z,87.46
2018-04-24T05:57:20.467Z,87.55
2018-04-24T05:58:20.707Z,87.46
2018-04-24T05:59:20.947Z,87.46
2018-04-24T06:00:21.187Z,87.84
2018-04-24T06:01:21.428Z,87.69
2018-04-24T06:02:21.667Z,87.50
2018-04-24T06:03:21.907Z,87.02
2018-04-24T06:04:22.145Z,87.31
2018-04-24T06:05:22.386Z,87.31
2018-04-24T06:06:22.626Z,87.69
2018-04-24T06:07:22.865Z,87.02
2018-04-24T06:08:23.192Z,86.55
2018-04-24T06:09:23.347Z,86.74
2018-04-24T06:10:23.588Z,86.45
2018-04-24T06:11:23.827Z,86.16
2018-04-24T06:12:24.069Z,86.16
2018-04-24T06:13:24.308Z,86.30
2018-04-24T06:14:24.547Z,85.35
2018-04-24T06:15:24.789Z,85.45
2018-04-24T06:16:25.036Z,85.54
2018-04-24T06:17:25.272Z,85.83
2018-04-24T06:18:25.513Z,84.88
2018-04-24T06:19:25.753Z,85.25
2018-04-24T06:20:25.995Z,85.06
2018-04-24T06:21:26.236Z,85.25
2018-04-24T06:22:26.550Z,84.69
2018-04-24T06:23:26.714Z,84.88
2018-04-24T06:24:26.955Z,84.30
2018-04-24T06:25:27.193Z,84.34
2018-04-24T06:26:27.434Z,83.87
2018-04-24T06:27:27.675Z,83.58
2018-04-24T06:28:27.934Z,83.11
2018-04-24T06:29:28.155Z,84.16
2018-04-24T06:30:28.395Z,83.39
2018-04-24T06:31:28.635Z,83.58
2018-04-24T06:32:28.875Z,83.77
2018-04-24T06:33:29.116Z,83.20
2018-04-24T06:34:29.356Z,83.11
2018-04-24T06:35:29.600Z,83.77
2018-04-24T06:36:29.837Z,83.58
2018-04-24T06:37:30.080Z,83.14
2018-04-24T06:38:30.320Z,82.76
2018-04-24T06:39:30.559Z,82.14
2018-04-24T06:40:30.800Z,81.09
2018-04-24T06:41:31.042Z,79.98
2018-04-24T06:42:31.281Z,77.87
2018-04-24T06:43:31.524Z,76.48
2018-04-24T06:44:31.768Z,75.81
2018-04-24T06:45:32.007Z,74.93
2018-04-24T06:46:32.247Z,73.02
2018-04-24T06:47:32.486Z,71.97
2018-04-24T06:48:32.728Z,71.42
2018-04-24T06:49:32.971Z,71.30
2018-04-24T06:50:33.212Z,72.02
2018-04-24T06:51:33.455Z,72.31
2018-04-24T06:52:33.699Z,72.60
2018-04-24T06:53:33.937Z,72.50
2018-04-24T06:54:34.182Z,72.41
2018-04-24T06:55:34.424Z,71.99
2018-04-24T06:56:34.672Z,72.28
2018-04-24T06:57:34.910Z,72.75
2018-04-24T06:58:35.153Z,72.56
2018-04-24T06:59:35.409Z,72.47
2018-04-24T07:00:35.702Z,72.08
2018-04-24T07:01:35.884Z,72.18
2018-04-24T07:02:36.122Z,72.47
2018-04-24T07:03:36.365Z,72.28
2018-04-24T07:04:36.607Z,71.51
2018-04-24T07:05:36.851Z,71.51
2018-04-24T07:06:37.094Z,71.70
2018-04-24T07:07:37.344Z,71.89
2018-04-24T07:08:37.581Z,72.37
2018-04-24T07:09:37.828Z,71.51
2018-04-24T07:10:38.068Z,70.59
2018-04-24T07:11:38.317Z,71.55
2018-04-24T07:12:38.568Z,70.87
2018-04-24T07:13:38.801Z,70.50
2018-04-24T07:14:39.042Z,68.68
2018-04-24T07:15:39.283Z,67.53
2018-04-24T07:16:39.529Z,66.38
2018-04-24T07:17:39.772Z,66.86
2018-04-24T07:18:40.014Z,65.94
2018-04-24T07:19:40.269Z,65.45
2018-04-24T07:20:40.503Z,66.32
2018-04-24T07:21:40.746Z,66.03
2018-04-24T07:22:40.990Z,65.11
2018-04-24T07:23:41.235Z,64.72
2018-04-24T07:24:41.478Z,64.34
2018-04-24T07:25:41.725Z,63.32
2018-04-24T07:26:41.967Z,63.00
2018-04-24T07:27:42.212Z,62.81
2018-04-24T07:28:42.461Z,65.20
2018-04-24T07:29:42.700Z,64.63
2018-04-24T07:30:42.944Z,63.70
2018-04-24T07:31:43.189Z,64.47
2018-04-24T07:32:43.433Z,63.76
2018-04-24T07:33:43.677Z,63.57
2018-04-24T07:34:43.926Z,63.67
2018-04-24T07:35:44.166Z,63.39
2018-04-24T07:36:44.410Z,63.10
2018-04-24T07:37:44.653Z,62.84
2018-04-24T07:38:44.898Z,61.60
2018-04-24T07:39:45.142Z,61.50
2018-04-24T07:40:45.391Z,59.58
2018-04-24T07:41:45.634Z,58.39
2018-04-24T07:42:45.887Z,57.92
2018-04-24T07:43:46.123Z,57.82
2018-04-24T07:44:46.366Z,57.46
2018-04-24T07:45:46.611Z,56.60
2018-04-24T07:46:46.947Z,55.45
2018-04-24T07:47:47.100Z,56.15
2018-04-24T07:48:47.344Z,54.83
2018-04-24T07:49:47.590Z,53.52
2018-04-24T07:50:47.836Z,53.11
2018-04-24T07:51:48.083Z,54.00
2018-04-24T07:52:48.325Z,52.34
2018-04-24T07:53:48.571Z,53.23
2018-04-24T07:54:48.817Z,51.67
2018-04-24T07:55:49.068Z,51.83
2018-04-24T07:56:49.325Z,52.79
2018-04-24T07:57:49.580Z,52.91
2018-04-24T07:58:49.833Z,52.40
2018-04-24T07:59:50.051Z,51.73
2018-04-24T08:00:50.299Z,52.09
2018-04-24T08:01:50.547Z,53.50
2018-04-24T08:02:50.795Z,54.72
2018-04-24T08:03:51.044Z,54.63
2018-04-24T08:04:51.290Z,55.01
2018-04-24T08:05:51.553Z,55.23
2018-04-24T08:06:51.800Z,53.89
2018-04-24T08:07:52.047Z,52.95
2018-04-24T08:08:52.295Z,51.81
2018-04-24T08:09:52.539Z,52.09
2018-04-24T08:10:52.787Z,50.96
2018-04-24T08:11:53.043Z,49.91
2018-04-24T08:12:53.285Z,50.23
2018-04-24T08:13:53.529Z,49.10
2018-04-24T08:14:53.775Z,49.29
2018-04-24T08:15:54.021Z,48.43
2018-04-24T08:16:54.265Z,48.23
2018-04-24T08:17:54.514Z,49.74
2018-04-24T08:18:54.761Z,50.20
2018-04-24T08:19:55.006Z,50.39
2018-04-24T08:20:55.261Z,50.29
2018-04-24T08:21:55.491Z,50.39
2018-04-24T08:22:55.748Z,51.54
2018-04-24T08:23:55.984Z,50.23
2018-04-24T08:24:56.230Z,50.42
2018-04-24T08:25:56.477Z,50.46
2018-04-24T08:26:56.726Z,48.66
2018-04-24T08:27:56.972Z,47.44
2018-04-24T08:28:57.219Z,46.47
2018-04-24T08:29:57.468Z,46.47
2018-04-24T08:30:57.919Z,46.36
2018-04-24T08:31:58.016Z,46.19
2018-04-24T08:32:58.266Z,45.99
2018-04-24T08:33:58.515Z,45.87
2018-04-24T08:34:58.765Z,45.85
2018-04-24T08:35:59.015Z,46.04
2018-04-24T08:36:59.265Z,44.99
2018-04-24T08:37:59.516Z,44.68
2018-04-24T08:38:59.768Z,44.77
2018-04-24T08:40:00.091Z,44.96
2018-04-24T08:41:00.257Z,45.52
2018-04-24T08:42:00.508Z,44.68
2018-04-24T08:43:00.760Z,45.10
2018-04-24T08:44:01.003Z,45.01
2018-04-24T08:45:01.252Z,44.14
2018-04-24T08:46:01.500Z,43.40
2018-04-24T08:47:01.748Z,42.39
2018-04-24T08:48:01.997Z,43.04
2018-04-24T08:49:02.253Z,43.50
2018-04-24T08:50:02.493Z,44.22
2018-04-24T08:51:02.745Z,43.33
2018-04-24T08:52:02.992Z,43.14
2018-04-24T08:53:03.241Z,41.50
2018-04-24T08:54:03.509Z,40.97
2018-04-24T08:55:03.742Z,39.14
2018-04-24T08:56:03.986Z,41.14
2018-04-24T08:57:04.233Z,41.45
2018-04-24T08:58:04.481Z,40.51
2018-04-24T08:59:04.731Z,41.18
2018-04-24T09:00:04.979Z,40.49
2018-04-24T09:01:05.229Z,41.24
2018-04-24T09:02:05.544Z,40.78
2018-04-24T09:03:05.727Z,40.58
2018-04-24T09:04:05.977Z,40.58
2018-04-24T09:05:06.225Z,40.39
2018-04-24T09:06:06.473Z,41.91
2018-04-24T09:07:06.721Z,42.27
2018-04-24T09:08:06.972Z,42.37
2018-04-24T09:09:07.737Z,42.52
2018-04-24T09:10:07.803Z,44.27
2018-04-24T09:11:07.847Z,44.38
2018-04-24T09:12:08.092Z,43.54
2018-04-24T09:13:08.342Z,42.68
2018-04-24T09:14:08.621Z,42.30
2018-04-24T09:15:08.842Z,41.93
2018-04-24T09:16:09.088Z,40.94
2018-04-24T09:17:09.338Z,39.31
2018-04-24T09:18:09.584Z,37.68
2018-04-24T09:19:09.836Z,38.91
2018-04-24T09:20:10.084Z,40.91
2018-04-24T09:21:10.334Z,40.99
2018-04-24T09:22:10.587Z,42.14
2018-04-24T09:23:10.834Z,41.88
2018-04-24T09:24:11.086Z,42.84
2018-04-24T09:25:11.331Z,41.78
2018-04-24T09:26:11.581Z,39.49
2018-04-24T09:27:11.879Z,39.29
2018-04-24T09:28:12.079Z,39.95
2018-04-24T09:29:12.337Z,38.33
2018-04-24T09:30:12.582Z,38.53
2018-04-24T09:31:12.831Z,38.39
2018-04-24T09:32:13.080Z,40.80
2018-04-24T09:33:13.330Z,40.07
2018-04-24T09:34:13.581Z,39.03
2018-04-24T09:35:13.837Z,37.66
2018-04-24T09:36:14.079Z,39.70
2018-04-24T09:37:14.332Z,37.39
2018-04-24T09:38:14.582Z,37.48
2018-04-24T09:39:14.835Z,37.41
2018-04-24T09:40:15.084Z,36.15
2018-04-24T09:41:15.333Z,35.30
2018-04-24T09:42:15.587Z,35.10
2018-04-24T09:43:15.837Z,35.80
2018-04-24T09:44:16.091Z,35.24
2018-04-24T09:45:16.343Z,34.08
2018-04-24T09:46:16.594Z,33.62
2018-04-24T09:47:16.843Z,33.23
2018-04-24T09:48:17.092Z,33.26
2018-04-24T09:49:17.347Z,31.54
2018-04-24T09:50:17.599Z,31.43
2018-04-24T09:51:17.867Z,31.33
2018-04-24T09:52:18.101Z,30.08
2018-04-24T09:53:18.351Z,29.02
2018-04-24T09:54:18.607Z,29.70
2018-04-24T09:55:18.856Z,28.72
2018-04-24T09:56:19.110Z,29.30
2018-04-24T09:57:19.361Z,29.61
2018-04-24T09:58:19.613Z,28.96
2018-04-24T09:59:19.867Z,28.85
2018-04-24T10:00:20.118Z,30.65
2018-04-24T10:01:20.373Z,31.02
2018-04-24T10:02:20.708Z,30.73
2018-04-24T10:03:20.881Z,31.18
2018-04-24T10:04:21.136Z,32.91
2018-04-24T10:05:21.387Z,33.68
2018-04-24T10:06:21.642Z,33.48
2018-04-24T10:07:21.892Z,32.75
2018-04-24T10:08:22.146Z,31.70
2018-04-24T10:09:22.401Z,30.93
2018-04-24T10:10:22.660Z,31.30
2018-04-24T10:11:22.907Z,31.01
2018-04-24T10:12:23.165Z,33.50
2018-04-24T10:13:23.495Z,32.91
2018-04-24T10:14:23.670Z,34.24
2018-04-24T10:15:23.924Z,33.58
2018-04-24T10:16:24.179Z,34.53
2018-04-24T10:17:24.436Z,34.74
2018-04-24T10:18:24.683Z,35.63
2018-04-24T10:19:24.940Z,34.45
2018-04-24T10:20:25.194Z,34.34
2018-04-24T10:21:25.447Z,34.94
2018-04-24T10:22:25.699Z,35.90
2018-04-24T10:23:25.953Z,35.90
2018-04-24T10:24:26.209Z,34.94
2018-04-24T10:25:26.459Z,33.22
2018-04-24T10:26:26.714Z,32.84
2018-04-24T10:27:26.971Z,31.83
2018-04-24T10:28:27.226Z,30.68
2018-04-24T10:29:27.470Z,30.47
2018-04-24T10:30:27.768Z,29.22
2018-04-24T10:31:27.979Z,29.70
2018-04-24T10:32:28.231Z,30.08
2018-04-24T10:33:28.485Z,31.40
2018-04-24T10:34:28.738Z,32.59
2018-04-24T10:35:28.991Z,31.91
2018-04-24T10:36:29.247Z,31.30
2018-04-24T10:37:29.555Z,31.70
2018-04-24T10:38:29.750Z,31.78
2018-04-24T10:39:30.008Z,33.60
2018-04-24T10:40:30.258Z,32.65
2018-04-24T10:41:30.512Z,32.73
2018-04-24T10:42:30.769Z,33.37
2018-04-24T10:43:31.023Z,32.81
2018-04-24T10:44:31.278Z,31.62
2018-04-24T10:45:31.532Z,29.92
2018-04-24T10:46:31.787Z,29.36
2018-04-24T10:47:32.038Z,27.93
2018-04-24T10:48:32.292Z,26.39
2018-04-24T10:49:32.547Z,26.11
2018-04-24T10:50:32.799Z,26.28
2018-04-24T10:51:33.131Z,26.65
2018-04-24T10:52:33.312Z,28.11
2018-04-24T10:53:33.635Z,28.94
2018-04-24T10:54:33.904Z,31.94
2018-04-24T10:55:34.060Z,34.70
2018-04-24T10:56:34.315Z,36.63
2018-04-24T10:57:34.567Z,36.52
2018-04-24T10:58:34.820Z,36.81
2018-04-24T10:59:35.076Z,35.71
2018-04-24T11:00:35.410Z,36.68
2018-04-24T11:01:35.583Z,36.69
2018-04-24T11:02:35.837Z,35.62
2018-04-24T11:03:36.091Z,37.52
2018-04-24T11:04:36.344Z,39.24
2018-04-24T11:05:36.598Z,40.95
2018-04-24T11:06:36.865Z,39.89
2018-04-24T11:07:37.104Z,37.77
2018-04-24T11:08:37.355Z,37.87
2018-04-24T11:09:37.605Z,38.93
2018-04-24T11:10:37.856Z,39.70
2018-04-24T11:11:38.179Z,39.41
2018-04-24T11:12:38.365Z,38.84
2018-04-24T11:13:38.616Z,38.84
2018-04-24T11:14:38.867Z,40.08
2018-04-24T11:15:39.116Z,41.53
2018-04-24T11:16:39.366Z,41.91
2018-04-24T11:17:39.613Z,43.16
2018-04-24T11:18:39.860Z,43.64
2018-04-24T11:19:40.110Z,42.77
2018-04-24T11:20:40.363Z,40.45
2018-04-24T11:21:40.612Z,39.68
2018-04-24T11:22:40.864Z,39.49
2018-04-24T11:23:41.132Z,38.60
2018-04-24T11:24:41.352Z,39.29
2018-04-24T11:25:41.603Z,39.87
2018-04-24T11:26:41.872Z,40.06
2018-04-24T11:27:42.104Z,40.45
2018-04-24T11:28:42.334Z,40.83
2018-04-24T11:29:42.585Z,39.76
2018-04-24T11:30:42.835Z,40.23
2018-04-24T11:31:43.080Z,40.83
2018-04-24T11:32:43.329Z,40.45
2018-04-24T11:33:43.578Z,41.41
2018-04-24T11:34:43.826Z,40.93
2018-04-24T11:35:44.073Z,40.66
2018-04-24T11:36:44.336Z,41.53
2018-04-24T11:37:44.570Z,41.06
2018-04-24T11:38:44.815Z,41.16
2018-04-24T11:39:45.066Z,39.93
2018-04-24T11:40:45.312Z,40.31
2018-04-24T11:41:45.561Z,40.43
2018-04-24T11:42:45.809Z,39.56
2018-04-24T11:43:46.092Z,40.22
2018-04-24T11:44:46.305Z,41.56
2018-04-24T11:45:46.554Z,41.26
2018-04-24T11:46:46.807Z,41.66
2018-04-24T11:47:47.059Z,41.39
2018-04-24T11:48:47.304Z,40.31
2018-04-24T11:49:47.552Z,41.08
2018-04-24T11:50:47.803Z,42.05
2018-04-24T11:51:48.048Z,42.05
2018-04-24T11:52:48.293Z,42.80
2018-04-24T11:53:48.543Z,43.37
2018-04-24T11:54:48.793Z,44.60
2018-04-24T11:55:49.042Z,45.92
2018-04-24T11:56:49.293Z,46.12
2018-04-24T11:57:49.539Z,46.50
2018-04-24T11:58:49.782Z,46.89
2018-04-24T11:59:50.038Z,46.48
2018-04-24T12:00:50.285Z,47.44
2018-04-24T12:01:50.533Z,47.05
2018-04-24T12:02:50.775Z,48.21
2018-04-24T12:03:51.026Z,47.92
2018-04-24T12:04:51.273Z,48.02
2018-04-24T12:05:51.521Z,48.38
2018-04-24T12:06:51.770Z,48.40
2018-04-24T12:07:52.017Z,48.76
2018-04-24T12:08:52.270Z,48.47
2018-04-24T12:09:52.592Z,48.47
2018-04-24T12:10:52.763Z,49.24
2018-04-24T12:11:53.011Z,50.42
2018-04-24T12:12:53.256Z,50.01
2018-04-24T12:13:53.500Z,50.23
2018-04-24T12:14:53.749Z,50.61
2018-04-24T12:15:53.996Z,50.68
2018-04-24T12:16:54.244Z,50.78
2018-04-24T12:17:54.494Z,51.64
2018-04-24T12:18:54.745Z,51.54
2018-04-24T12:19:54.995Z,51.64
2018-04-24T12:20:55.228Z,51.73
2018-04-24T12:21:55.471Z,51.54
2018-04-24T12:22:55.729Z,51.25
2018-04-24T12:23:55.971Z,52.86
2018-04-24T12:24:56.219Z,52.48
2018-04-24T12:25:56.473Z,52.19
2018-04-24T12:26:56.729Z,52.28
2018-04-24T12:27:56.976Z,52.19
2018-04-24T12:28:57.203Z,52.57
2018-04-24T12:29:57.443Z,53.34
2018-04-24T12:30:57.730Z,54.01
2018-04-24T12:31:57.963Z,52.95
2018-04-24T12:32:58.214Z,53.82
2018-04-24T12:33:58.443Z,52.67
2018-04-24T12:34:58.712Z,53.15
2018-04-24T12:35:58.951Z,52.38
2018-04-24T12:36:59.196Z,52.57
2018-04-24T12:37:59.437Z,52.57
2018-04-24T12:38:59.682Z,52.28
2018-04-24T12:39:59.932Z,52.28
2018-04-24T12:41:00.182Z,53.05
2018-04-24T12:42:00.424Z,52.28
2018-04-24T12:43:00.664Z,52.19
2018-04-24T12:44:00.923Z,53.24
2018-04-24T12:45:01.158Z,52.38
2018-04-24T12:46:01.404Z,52.60
2018-04-24T12:47:01.642Z,52.69
2018-04-24T12:48:01.877Z,52.98
2018-04-24T12:49:02.125Z,51.54
2018-04-24T12:50:02.356Z,51.28
2018-04-24T12:51:02.611Z,50.70
2018-04-24T12:52:02.857Z,50.32
2018-04-24T12:53:03.108Z,51.09
2018-04-24T12:54:03.340Z,50.63
2018-04-24T12:55:03.570Z,49.84
2018-04-24T12:56:03.825Z,49.96